Time;durP1;ratioP1;P1;durP2;ratioP2;P2;SDS_P1;SDS_P2;PMS_P1;PMS_P2;Temp;Humidity;BMP_temperature;BMP_pressure;BME280_temperature;BME280_humidity;BME280_pressure;Samples;Min_cycle;Max_cycle;Signal;HPM_P1;HPM_P2
2021/09/01 00:02:18;;;;;;;15.85;7.85;;;;;;;15.22;92.45;97039.16;4984577;28;20226;-72
2021/09/01 00:04:45;;;;;;;14.93;8.23;;;;;;;15.36;93.36;97043.59;4984022;28;20200;-73
2021/09/01 00:07:12;;;;;;;13.65;7.95;;;;;;;14.97;92.98;97043.09;4982521;28;20704;-73
2021/09/01 00:09:38;;;;;;;12.15;7.75;;;;;;;15.04;92.18;97041.34;4981826;28;20399;-73
2021/09/01 00:12:05;;;;;;;10.90;7.15;;;;;;;15.06;91.34;97049.97;4982893;28;20206;-72
2021/09/01 00:14:32;;;;;;;11.15;6.80;;;;;;;15.07;90.88;97046.31;4983348;28;20203;-73
2021/09/01 00:16:59;;;;;;;16.42;8.63;;;;;;;14.96;91.48;97054.72;4983021;28;20219;-72
2021/09/01 00:19:25;;;;;;;12.52;6.80;;;;;;;14.88;92.37;97052.16;4983043;28;20199;-71
2021/09/01 00:21:54;;;;;;;10.07;6.85;;;;;;;15.05;90.50;97050.97;4981661;28;20243;-73
2021/09/01 00:24:20;;;;;;;10.98;6.63;;;;;;;14.59;91.32;97058.44;4981408;28;20569;-72
2021/09/01 00:26:47;;;;;;;13.60;6.38;;;;;;;14.66;90.44;97053.09;4981857;28;20295;-72
2021/09/01 00:29:14;;;;;;;13.13;7.40;;;;;;;14.43;94.14;97050.69;4981783;28;20683;-72
2021/09/01 00:31:40;;;;;;;15.82;8.52;;;;;;;14.39;95.32;97057.34;4981937;28;20202;-72
2021/09/01 00:34:07;;;;;;;14.27;7.75;;;;;;;14.40;95.86;97051.03;4982152;28;20320;-71
2021/09/01 00:36:33;;;;;;;10.27;7.30;;;;;;;14.51;93.54;97053.25;4982570;28;20230;-72
2021/09/01 00:39:01;;;;;;;15.52;8.15;;;;;;;14.53;94.97;97051.25;4983373;28;20293;-71
2021/09/01 00:41:29;;;;;;;13.13;7.88;;;;;;;14.49;94.79;97055.28;4983618;28;20227;-72
2021/09/01 00:43:58;;;;;;;16.15;8.77;;;;;;;14.50;94.06;97046.28;4983003;28;20208;-71
2021/09/01 00:46:25;;;;;;;17.30;10.05;;;;;;;14.32;96.25;97045.78;4983249;28;20229;-72
2021/09/01 00:48:52;;;;;;;12.82;7.40;;;;;;;14.38;92.59;97048.56;4982809;28;20214;-73
2021/09/01 00:51:20;;;;;;;14.50;7.57;;;;;;;14.44;92.29;97047.84;4982620;28;20211;-73
2021/09/01 00:53:48;;;;;;;14.15;8.35;;;;;;;14.42;93.52;97043.72;4982961;28;20671;-72
2021/09/01 00:56:18;;;;;;;16.70;9.52;;;;;;;14.43;94.42;97042.72;4982312;28;20223;-72
2021/09/01 00:58:46;;;;;;;16.33;9.45;;;;;;;14.39;94.95;97044.09;4983217;28;20264;-71
2021/09/01 01:01:16;;;;;;;12.25;7.75;;;;;;;14.17;92.12;97051.06;4984092;28;20206;-73
2021/09/01 01:03:47;;;;;;;12.40;7.95;;;;;;;14.24;90.85;97054.69;4982560;28;20203;-72
2021/09/01 01:06:14;;;;;;;11.73;7.32;;;;;;;14.22;91.82;97055.84;4981773;28;20230;-72
2021/09/01 01:08:40;;;;;;;15.48;8.98;;;;;;;14.14;93.86;97058.56;4982394;28;20204;-71
2021/09/01 01:11:12;;;;;;;18.42;9.45;;;;;;;14.30;94.66;97053.94;4982104;28;20199;-72
2021/09/01 01:13:41;;;;;;;14.23;8.68;;;;;;;14.24;93.19;97045.88;4981614;28;20207;-71
2021/09/01 01:16:07;;;;;;;13.00;8.32;;;;;;;13.97;92.66;97057.03;4981697;28;20737;-72
2021/09/01 01:18:34;;;;;;;12.63;7.80;;;;;;;13.96;94.11;97042.13;4983141;28;20207;-72
2021/09/01 01:21:00;;;;;;;13.90;8.65;;;;;;;13.89;94.08;97051.78;4982429;28;20203;-71
2021/09/01 01:23:27;;;;;;;14.10;8.55;;;;;;;13.89;92.78;97046.50;4982101;28;20219;-71
2021/09/01 01:25:55;;;;;;;12.35;7.85;;;;;;;14.08;91.99;97046.03;4981134;28;20231;-72
2021/09/01 01:28:21;;;;;;;11.93;7.65;;;;;;;13.80;90.95;97044.09;4982143;28;20199;-71
2021/09/01 01:30:48;;;;;;;11.70;6.90;;;;;;;13.56;91.54;97042.41;4981960;28;20195;-73
2021/09/01 01:33:15;;;;;;;11.63;7.50;;;;;;;13.64;90.92;97049.50;4981373;28;20204;-73
2021/09/01 01:35:43;;;;;;;13.35;7.78;;;;;;;13.72;93.52;97052.91;4980135;28;20223;-71
2021/09/01 01:38:11;;;;;;;15.10;8.97;;;;;;;13.74;95.66;97053.56;4981842;28;20569;-71
2021/09/01 01:40:40;;;;;;;16.03;9.10;;;;;;;13.78;95.42;97060.13;4983038;28;20207;-73
2021/09/01 01:43:08;;;;;;;14.37;7.07;;;;;;;13.94;93.46;97053.91;4982226;28;20566;-73
2021/09/01 01:45:37;;;;;;;9.68;6.18;;;;;;;13.86;89.58;97057.47;4981791;28;20228;-73
2021/09/01 01:48:05;;;;;;;10.13;6.82;;;;;;;13.79;90.37;97067.09;4982722;28;20207;-73
2021/09/01 01:50:32;;;;;;;12.20;7.60;;;;;;;13.90;91.54;97058.75;4982190;28;20200;-71
2021/09/01 01:52:59;;;;;;;16.73;8.35;;;;;;;13.74;93.50;97061.50;4981739;28;20199;-71
2021/09/01 01:55:25;;;;;;;12.00;7.88;;;;;;;13.82;91.41;97061.44;4981404;28;20598;-73
2021/09/01 01:57:52;;;;;;;13.23;8.52;;;;;;;13.69;92.69;97055.09;4981221;28;20227;-71
2021/09/01 02:00:20;;;;;;;15.57;7.97;;;;;;;13.87;92.19;97061.72;4982271;28;20199;-73
2021/09/01 02:02:46;;;;;;;13.07;8.23;;;;;;;13.66;92.84;97056.25;4981721;28;20704;-71
2021/09/01 02:05:14;;;;;;;14.00;8.27;;;;;;;13.70;93.40;97059.41;4980178;28;20203;-73
2021/09/01 02:07:40;;;;;;;13.00;7.87;;;;;;;13.66;91.12;97058.91;4981668;28;20226;-71
2021/09/01 02:10:09;;;;;;;11.80;7.00;;;;;;;13.77;89.78;97053.22;4977775;28;20587;-72
2021/09/01 02:12:35;;;;;;;12.45;7.72;;;;;;;13.58;90.26;97058.97;4980897;28;20203;-72
2021/09/01 02:15:05;;;;;;;14.20;7.50;;;;;;;13.81;90.71;97056.31;4979851;28;20199;-72
2021/09/01 02:17:33;;;;;;;11.93;7.15;;;;;;;13.74;90.38;97053.56;4977923;28;20204;-72
2021/09/01 02:20:00;;;;;;;10.88;6.93;;;;;;;13.56;89.79;97058.31;4980869;28;20215;-72
2021/09/01 02:22:26;;;;;;;13.90;7.67;;;;;;;13.46;91.31;97054.25;4980538;28;20223;-71
2021/09/01 02:24:53;;;;;;;13.13;7.32;;;;;;;13.53;89.83;97055.19;4980406;28;20230;-71
2021/09/01 02:27:20;;;;;;;12.27;7.35;;;;;;;13.35;90.63;97059.13;4980036;28;20226;-73
2021/09/01 02:29:47;;;;;;;10.17;6.27;;;;;;;13.23;88.56;97057.88;4979555;28;21092;-71
2021/09/01 02:32:13;;;;;;;10.47;6.50;;;;;;;13.28;89.98;97055.53;4980694;28;20212;-72
2021/09/01 02:34:41;;;;;;;13.05;6.90;;;;;;;13.36;91.72;97048.34;4981310;28;20207;-73
2021/09/01 02:37:08;;;;;;;13.23;7.80;;;;;;;13.09;92.92;97051.47;4980425;28;20231;-73
2021/09/01 02:39:34;;;;;;;10.13;5.97;;;;;;;13.25;91.02;97047.91;4980424;28;20207;-72
2021/09/01 02:42:01;;;;;;;9.67;6.30;;;;;;;13.23;89.61;97056.03;4980599;28;20725;-73
2021/09/01 02:44:29;;;;;;;8.27;5.53;;;;;;;13.28;88.13;97058.97;4981157;28;20210;-73
2021/09/01 02:46:55;;;;;;;11.03;6.57;;;;;;;13.07;91.12;97057.94;4979114;28;20228;-73
2021/09/01 02:49:22;;;;;;;10.77;6.67;;;;;;;13.13;92.53;97058.06;4980284;28;20210;-72
2021/09/01 02:51:49;;;;;;;9.77;6.13;;;;;;;13.42;90.95;97060.91;4979687;28;20218;-72
2021/09/01 02:54:16;;;;;;;7.43;5.20;;;;;;;13.33;88.81;97063.75;4980587;28;20215;-72
2021/09/01 02:56:43;;;;;;;8.77;5.73;;;;;;;13.15;87.77;97063.19;4978389;28;20223;-73
2021/09/01 02:59:09;;;;;;;8.10;5.30;;;;;;;13.04;88.98;97068.88;4979150;28;20215;-72
2021/09/01 03:01:36;;;;;;;10.63;6.30;;;;;;;13.06;89.17;97067.69;4979924;28;20195;-71
2021/09/01 03:04:03;;;;;;;7.37;5.37;;;;;;;13.09;88.77;97077.13;4979317;28;20230;-71
2021/09/01 03:06:29;;;;;;;7.47;5.17;;;;;;;12.82;89.06;97064.28;4979682;28;20223;-72
2021/09/01 03:08:57;;;;;;;7.60;5.00;;;;;;;13.05;88.58;97067.88;4979851;28;20215;-71
2021/09/01 03:11:24;;;;;;;8.07;5.30;;;;;;;12.85;88.45;97064.78;4976718;28;20214;-73
2021/09/01 03:13:50;;;;;;;7.40;5.47;;;;;;;12.78;89.13;97063.00;4978634;28;20199;-71
2021/09/01 03:16:17;;;;;;;8.93;5.73;;;;;;;12.84;89.84;97059.63;4979136;28;20219;-73
2021/09/01 03:18:43;;;;;;;9.63;5.50;;;;;;;12.84;90.20;97064.94;4979338;28;20199;-72
2021/09/01 03:21:10;;;;;;;14.17;7.73;;;;;;;12.90;92.91;97059.00;4979151;28;20206;-71
2021/09/01 03:23:37;;;;;;;15.23;8.23;;;;;;;12.89;93.39;97060.00;4979000;28;20234;-72
2021/09/01 03:26:05;;;;;;;11.17;7.30;;;;;;;13.12;91.98;97060.88;4976942;28;20223;-72
2021/09/01 03:28:31;;;;;;;12.33;6.60;;;;;;;12.75;92.52;97065.97;4978369;28;20210;-73
2021/09/01 03:30:58;;;;;;;13.47;7.40;;;;;;;12.76;93.94;97068.41;4979048;28;20207;-73
2021/09/01 03:33:24;;;;;;;12.87;7.43;;;;;;;12.91;93.69;97071.25;4978926;28;20202;-72
2021/09/01 03:35:51;;;;;;;13.57;7.83;;;;;;;12.87;95.13;97072.56;4977758;28;20794;-72
2021/09/01 03:38:17;;;;;;;15.10;8.47;;;;;;;12.94;94.76;97074.34;4978380;28;20199;-72
2021/09/01 03:40:44;;;;;;;19.03;8.37;;;;;;;12.99;95.08;97079.94;4979243;28;20203;-72
2021/09/01 03:43:12;;;;;;;21.50;8.53;;;;;;;13.13;97.01;97083.72;4978273;28;20254;-72
2021/09/01 03:45:38;;;;;;;13.67;8.10;;;;;;;13.01;95.21;97075.31;4978600;28;20223;-73
2021/09/01 03:48:05;;;;;;;14.47;7.60;;;;;;;13.13;94.45;97081.06;4978445;28;20218;-73
2021/09/01 03:50:32;;;;;;;12.33;6.90;;;;;;;13.07;94.67;97082.59;4977902;28;20977;-72
2021/09/01 03:52:58;;;;;;;12.73;7.27;;;;;;;13.08;94.99;97081.56;4978040;28;20195;-71
2021/09/01 03:55:27;;;;;;;11.07;6.57;;;;;;;13.14;94.54;97082.72;4977762;28;20752;-72
2021/09/01 03:57:53;;;;;;;12.87;7.00;;;;;;;13.15;93.33;97081.69;4977902;28;20230;-73
2021/09/01 04:00:21;;;;;;;9.37;6.37;;;;;;;13.19;94.21;97080.38;4977621;28;20203;-72
2021/09/01 04:02:47;;;;;;;14.20;6.50;;;;;;;13.06;92.80;97085.38;4977646;28;20234;-71
2021/09/01 04:05:14;;;;;;;13.33;6.90;;;;;;;12.89;92.80;97097.03;4977558;28;20207;-73
2021/09/01 04:07:40;;;;;;;12.57;6.87;;;;;;;12.97;93.18;97095.19;4977383;28;20204;-72
2021/09/01 04:10:07;;;;;;;12.07;7.03;;;;;;;13.12;93.04;97090.00;4974859;28;20203;-72
2021/09/01 04:12:34;;;;;;;11.93;6.60;;;;;;;13.09;92.96;97090.34;4977995;28;20195;-73
2021/09/01 04:15:00;;;;;;;10.87;6.83;;;;;;;13.32;91.40;97092.06;4976933;28;20208;-72
2021/09/01 04:17:30;;;;;;;16.20;7.00;;;;;;;13.46;91.33;97094.78;4976791;28;20359;-72
2021/09/01 04:19:57;;;;;;;10.03;6.90;;;;;;;13.36;90.54;97095.19;4977269;28;20200;-73
2021/09/01 04:22:23;;;;;;;10.63;7.03;;;;;;;13.15;91.25;97097.56;4977355;28;20219;-73
2021/09/01 04:24:50;;;;;;;14.37;7.47;;;;;;;13.15;92.89;97093.13;4976872;28;20750;-71
2021/09/01 04:27:16;;;;;;;14.73;8.53;;;;;;;13.18;93.75;97086.66;4976835;28;20223;-71
2021/09/01 04:29:43;;;;;;;16.00;7.77;;;;;;;13.22;93.04;97093.25;4977212;28;20212;-72
2021/09/01 04:32:09;;;;;;;16.20;7.33;;;;;;;13.35;91.34;97093.53;4975939;28;20208;-72
2021/09/01 04:34:37;;;;;;;18.80;7.93;;;;;;;13.50;91.72;97090.81;4977070;28;20317;-72
2021/09/01 04:37:04;;;;;;;16.23;8.00;;;;;;;13.39;92.22;97095.66;4975705;28;20227;-71
2021/09/01 04:39:31;;;;;;;15.52;8.15;;;;;;;13.13;94.49;97089.00;4979935;28;21045;-71
2021/09/01 04:41:57;;;;;;;20.97;9.20;;;;;;;13.15;95.52;97087.84;4980487;28;20222;-73
2021/09/01 04:44:24;;;;;;;15.80;8.47;;;;;;;13.24;94.04;97088.59;4980256;28;20239;-72
2021/09/01 04:46:50;;;;;;;17.37;9.07;;;;;;;13.15;94.78;97089.63;4979440;28;20223;-71
2021/09/01 04:49:17;;;;;;;13.70;8.07;;;;;;;13.40;92.87;97092.00;4980305;28;20212;-73
2021/09/01 04:51:44;;;;;;;16.10;8.83;;;;;;;13.76;92.00;97093.94;4979919;28;20218;-73
2021/09/01 04:54:11;;;;;;;21.83;9.60;;;;;;;13.67;91.78;97089.72;4979727;28;20207;-72
2021/09/01 04:56:37;;;;;;;17.77;9.77;;;;;;;13.70;92.67;97093.81;4980029;28;20230;-73
2021/09/01 04:59:04;;;;;;;18.65;10.20;;;;;;;13.81;92.82;97090.75;4980053;28;20207;-73
2021/09/01 05:01:30;;;;;;;27.88;10.93;;;;;;;13.86;93.77;97091.91;4980460;28;20199;-73
2021/09/01 05:03:57;;;;;;;26.93;12.30;;;;;;;13.88;94.55;97099.66;4980426;28;20516;-73
2021/09/01 05:06:26;;;;;;;46.88;14.30;;;;;;;13.69;97.60;97095.63;4977611;28;20239;-71
2021/09/01 05:08:54;;;;;;;80.03;17.33;;;;;;;13.97;97.67;97099.41;4977333;28;20261;-72
2021/09/01 05:11:21;;;;;;;64.53;17.50;;;;;;;13.93;96.78;97100.78;4973958;28;21223;-71
2021/09/01 05:13:48;;;;;;;55.07;19.17;;;;;;;13.90;97.85;97100.28;4977215;28;20199;-71
2021/09/01 05:16:14;;;;;;;46.70;16.37;;;;;;;13.95;97.32;97103.25;4976082;28;20223;-71
2021/09/01 05:18:40;;;;;;;49.30;14.05;;;;;;;13.81;96.97;97104.84;4977272;28;20204;-72
2021/09/01 05:21:12;;;;;;;38.47;13.55;;;;;;;14.06;97.45;97101.84;4976640;28;20199;-72
2021/09/01 05:23:41;;;;;;;29.75;12.57;;;;;;;14.24;95.94;97106.84;4976631;28;20785;-71
2021/09/01 05:26:10;;;;;;;40.40;13.50;;;;;;;14.23;95.74;97110.50;4976410;28;20215;-71
2021/09/01 05:28:38;;;;;;;26.40;13.45;;;;;;;14.14;95.72;97108.91;4976450;28;20667;-72
2021/09/01 05:31:06;;;;;;;26.58;14.10;;;;;;;14.39;94.45;97113.03;4976945;28;20215;-71
2021/09/01 05:33:34;;;;;;;42.60;13.25;;;;;;;14.20;95.31;97109.03;4976833;28;20586;-71
2021/09/01 05:36:01;;;;;;;44.58;12.35;;;;;;;14.06;95.40;97111.59;4975779;28;20219;-72
2021/09/01 05:38:32;;;;;;;39.35;12.82;;;;;;;14.47;94.58;97111.13;4976662;28;21366;-72
2021/09/01 05:41:00;;;;;;;36.53;13.67;;;;;;;14.31;95.14;97118.41;4976281;28;20214;-72
2021/09/01 05:43:28;;;;;;;19.48;11.23;;;;;;;14.43;95.16;97107.19;4976364;28;20227;-71
2021/09/01 05:45:55;;;;;;;99.45;13.10;;;;;;;14.37;94.04;97109.72;4976223;28;20219;-71
2021/09/01 05:48:23;;;;;;;26.50;12.30;;;;;;;14.50;94.23;97115.25;4975926;28;20573;-71
2021/09/01 05:50:52;;;;;;;27.63;12.07;;;;;;;14.56;94.64;97111.88;4976508;28;20226;-72
2021/09/01 05:53:20;;;;;;;29.90;13.63;;;;;;;14.61;93.76;97112.97;4976361;28;20679;-70
2021/09/01 05:55:50;;;;;;;25.35;13.20;;;;;;;14.60;95.17;97110.50;4975734;28;20223;-71
2021/09/01 05:58:19;;;;;;;43.78;14.20;;;;;;;14.48;95.49;97111.97;4976917;28;20199;-71
2021/09/01 06:00:53;;;;;;;30.00;13.35;;;;;;;15.01;93.87;97108.09;4976817;28;20290;-72
2021/09/01 06:03:25;;;;;;;21.98;12.88;;;;;;;15.12;93.47;97112.94;4976467;28;20233;-72
2021/09/01 06:05:56;;;;;;;22.05;10.80;;;;;;;15.14;94.29;97118.06;4975962;28;20230;-72
2021/09/01 06:08:25;;;;;;;21.15;11.38;;;;;;;14.89;94.84;97124.63;4975996;28;20231;-72
2021/09/01 06:10:54;;;;;;;19.10;11.00;;;;;;;15.01;94.19;97121.34;4973359;28;20235;-71
2021/09/01 06:13:21;;;;;;;119.63;12.82;;;;;;;14.82;93.80;97121.88;4975984;28;20233;-71
2021/09/01 06:15:49;;;;;;;73.65;14.60;;;;;;;14.85;93.75;97123.34;4975631;28;20609;-71
2021/09/01 06:18:16;;;;;;;98.55;12.48;;;;;;;14.62;95.22;97127.88;4976306;28;20219;-73
2021/09/01 06:20:43;;;;;;;24.02;11.52;;;;;;;14.68;95.44;97130.66;4976701;28;20203;-72
2021/09/01 06:23:10;;;;;;;55.03;12.32;;;;;;;14.74;95.72;97126.47;4975703;28;20211;-72
2021/09/01 06:25:37;;;;;;;60.97;12.38;;;;;;;14.83;94.97;97118.22;4975607;28;20215;-72
2021/09/01 06:28:05;;;;;;;44.08;11.88;;;;;;;14.88;95.55;97123.81;4976321;28;20229;-71
2021/09/01 06:30:32;;;;;;;53.28;12.00;;;;;;;14.87;94.83;97118.69;4975597;28;20218;-72
2021/09/01 06:33:00;;;;;;;44.85;11.38;;;;;;;14.86;95.52;97117.84;4975608;28;20211;-71
2021/09/01 06:35:26;;;;;;;111.68;13.13;;;;;;;14.68;95.14;97125.34;4975896;28;20223;-71
2021/09/01 06:37:53;;;;;;;89.25;12.95;;;;;;;14.67;95.37;97120.22;4975532;28;20222;-72
2021/09/01 06:40:20;;;;;;;42.08;12.20;;;;;;;14.76;96.35;97127.91;4975082;28;21008;-72
2021/09/01 06:42:47;;;;;;;59.42;12.00;;;;;;;14.84;94.82;97130.50;4975919;28;20203;-71
2021/09/01 06:45:14;;;;;;;85.65;12.60;;;;;;;14.70;97.26;97130.47;4974827;28;20230;-72
2021/09/01 06:47:42;;;;;;;67.60;11.40;;;;;;;14.66;96.72;97130.03;4973990;28;20454;-72
2021/09/01 06:50:12;;;;;;;24.90;12.40;;;;;;;14.82;96.58;97131.69;4974410;28;20564;-71
2021/09/01 06:52:39;;;;;;;26.67;11.75;;;;;;;14.66;98.02;97131.84;4974565;28;20687;-72
2021/09/01 06:55:06;;;;;;;41.35;12.77;;;;;;;14.65;97.86;97133.66;4974886;28;20211;-71
2021/09/01 06:57:33;;;;;;;23.70;12.30;;;;;;;14.96;96.78;97134.34;4971500;28;20207;-72
2021/09/01 07:00:00;;;;;;;29.38;13.02;;;;;;;14.88;97.34;97141.56;4975294;28;20576;-71
2021/09/01 07:02:26;;;;;;;32.47;12.52;;;;;;;14.97;97.74;97140.47;4975914;28;20744;-72
2021/09/01 07:04:53;;;;;;;26.42;12.20;;;;;;;15.03;98.62;97140.59;4975478;28;20249;-71
2021/09/01 07:07:21;;;;;;;35.15;13.38;;;;;;;15.11;99.46;97148.47;4975131;28;20233;-72
2021/09/01 07:09:47;;;;;;;23.70;13.57;;;;;;;15.12;98.93;97147.47;4975034;28;20204;-72
2021/09/01 07:12:13;;;;;;;25.48;14.35;;;;;;;15.24;98.08;97153.16;4975807;28;20200;-72
2021/09/01 07:14:40;;;;;;;25.17;13.27;;;;;;;15.30;98.70;97158.56;4975366;28;20210;-71
2021/09/01 07:17:06;;;;;;;23.05;13.68;;;;;;;15.49;98.26;97153.50;4974641;28;20277;-72
2021/09/01 07:19:33;;;;;;;25.77;14.05;;;;;;;15.67;97.81;97151.28;4975397;28;20207;-72
2021/09/01 07:21:59;;;;;;;20.02;13.43;;;;;;;15.77;97.92;97158.94;4975563;28;20213;-72
2021/09/01 07:24:27;;;;;;;25.33;14.55;;;;;;;15.74;100.00;97157.50;4974502;28;20227;-72
2021/09/01 07:26:54;;;;;;;25.20;14.50;;;;;;;15.72;98.92;97151.56;4973666;28;20641;-71
2021/09/01 07:29:20;;;;;;;27.23;14.77;;;;;;;15.61;100.00;97156.53;4974825;28;20199;-71
2021/09/01 07:31:47;;;;;;;26.73;15.63;;;;;;;15.81;100.00;97153.09;4974512;28;20590;-72
2021/09/01 07:34:13;;;;;;;28.65;14.98;;;;;;;15.78;100.00;97157.94;4974618;28;20207;-72
2021/09/01 07:36:40;;;;;;;24.40;14.20;;;;;;;16.10;99.42;97153.84;4973879;28;20275;-71
2021/09/01 07:39:06;;;;;;;25.45;15.00;;;;;;;16.41;98.04;97153.53;4974882;28;20706;-71
2021/09/01 07:41:36;;;;;;;28.00;14.15;;;;;;;16.52;99.14;97159.16;4975095;28;20207;-72
2021/09/01 07:44:03;;;;;;;28.10;15.07;;;;;;;16.38;99.73;97161.91;4972856;28;20223;-72
2021/09/01 07:46:30;;;;;;;25.90;15.05;;;;;;;16.42;99.59;97169.31;4974673;28;20223;-72
2021/09/01 07:49:00;;;;;;;24.92;14.43;;;;;;;16.55;99.54;97166.78;4974909;28;20214;-71
2021/09/01 07:51:26;;;;;;;24.77;14.85;;;;;;;16.77;99.58;97163.88;4975132;28;20203;-71
2021/09/01 07:53:53;;;;;;;28.15;15.32;;;;;;;16.99;98.73;97172.66;4975033;28;20203;-71
2021/09/01 07:56:19;;;;;;;23.23;13.98;;;;;;;17.01;98.73;97170.66;4974347;28;20219;-71
2021/09/01 07:58:47;;;;;;;19.40;12.90;;;;;;;17.23;98.31;97175.69;4974932;28;20238;-71
2021/09/01 08:01:14;;;;;;;20.15;13.10;;;;;;;17.03;98.40;97174.75;4975122;28;20209;-72
2021/09/01 08:03:40;;;;;;;21.60;12.45;;;;;;;17.20;98.97;97176.09;4975400;28;20199;-72
2021/09/01 08:06:07;;;;;;;19.85;12.18;;;;;;;17.12;99.03;97185.06;4973425;28;20234;-71
2021/09/01 08:08:36;;;;;;;17.23;11.00;;;;;;;17.64;95.31;97188.06;4974785;28;20200;-71
2021/09/01 08:11:02;;;;;;;16.35;10.73;;;;;;;17.65;97.98;97192.38;4974835;28;20215;-73
2021/09/01 08:13:29;;;;;;;16.20;10.07;;;;;;;17.69;94.13;97192.81;4977198;28;20242;-72
2021/09/01 08:15:57;;;;;;;17.35;9.45;;;;;;;18.14;91.20;97187.66;4977380;28;20235;-72
2021/09/01 08:18:23;;;;;;;15.20;9.10;;;;;;;18.25;91.13;97184.44;4978872;28;20212;-72
2021/09/01 08:20:50;;;;;;;17.55;10.07;;;;;;;18.06;94.11;97186.00;4978841;28;20218;-73
2021/09/01 08:23:17;;;;;;;15.25;9.30;;;;;;;18.24;91.64;97182.78;4977455;28;20582;-72
2021/09/01 08:25:43;;;;;;;14.30;8.20;;;;;;;18.20;90.30;97186.88;4976629;28;20237;-71
2021/09/01 08:28:10;;;;;;;13.52;7.78;;;;;;;18.39;87.30;97193.13;4978552;28;20218;-72
2021/09/01 08:30:36;;;;;;;14.18;7.40;;;;;;;18.68;85.81;97190.06;4977660;28;20207;-72
2021/09/01 08:33:05;;;;;;;15.63;8.40;;;;;;;18.98;88.73;97191.31;4977147;28;20204;-71
2021/09/01 08:35:31;;;;;;;28.90;9.32;;;;;;;19.09;84.75;97196.06;4976722;28;20227;-71
2021/09/01 08:37:58;;;;;;;13.60;7.60;;;;;;;19.23;82.50;97197.69;4977604;28;20229;-72
2021/09/01 08:40:24;;;;;;;9.85;6.72;;;;;;;19.53;84.09;97194.38;4977805;28;20207;-71
2021/09/01 08:42:51;;;;;;;276.65;23.80;;;;;;;19.68;82.81;97186.94;4974070;28;20214;-71
2021/09/01 08:45:18;;;;;;;362.88;29.15;;;;;;;19.80;81.76;97193.28;4977008;28;20223;-71
2021/09/01 08:47:45;;;;;;;14.02;6.68;;;;;;;20.03;78.38;97196.31;4977077;28;20199;-72
2021/09/01 08:50:14;;;;;;;10.55;6.25;;;;;;;20.14;77.65;97196.47;4977860;28;20203;-71
2021/09/01 08:52:41;;;;;;;12.70;6.07;;;;;;;20.18;78.80;97203.03;4977227;28;20210;-73
2021/09/01 08:55:09;;;;;;;11.27;5.72;;;;;;;20.44;74.46;97190.34;4977488;28;20219;-72
2021/09/01 08:57:36;;;;;;;11.60;5.97;;;;;;;20.48;75.92;97191.53;4976606;28;20214;-72
2021/09/01 09:00:03;;;;;;;10.05;6.38;;;;;;;20.65;76.57;97191.84;4977595;28;20222;-72
2021/09/01 09:02:30;;;;;;;9.55;5.97;;;;;;;20.71;77.48;97196.31;4977396;28;20928;-71
2021/09/01 09:04:57;;;;;;;7.93;4.90;;;;;;;20.71;71.74;97197.16;4977634;28;20223;-72
2021/09/01 09:07:25;;;;;;;11.90;5.85;;;;;;;20.85;69.91;97193.38;4975697;28;20234;-72
2021/09/01 09:09:52;;;;;;;10.95;5.70;;;;;;;20.62;71.39;97202.97;4977147;28;20218;-71
2021/09/01 09:12:30;;;;;;;9.55;5.45;;;;;;;20.43;71.22;97194.03;4977193;28;20308;-72
2021/09/01 09:14:56;;;;;;;9.30;5.32;;;;;;;20.59;70.19;97192.72;4977612;28;20207;-72
2021/09/01 09:17:23;;;;;;;10.65;5.50;;;;;;;21.06;70.42;97184.97;4976236;28;20227;-72
2021/09/01 09:19:55;;;;;;;10.95;5.65;;;;;;;21.51;69.16;97184.56;4976745;28;20328;-71
2021/09/01 09:22:26;;;;;;;16.70;5.70;;;;;;;21.24;68.46;97182.34;4976615;28;20211;-71
2021/09/01 09:25:10;;;;;;;10.68;5.97;;;;;;;20.81;68.23;97180.63;4975380;28;20245;-72
2021/09/01 09:27:48;;;;;;;11.85;5.50;;;;;;;20.40;73.38;97181.09;4976410;28;20200;-73
2021/09/01 09:30:26;;;;;;;9.85;5.70;;;;;;;20.46;71.21;97182.09;4977252;28;20203;-71
2021/09/01 09:32:57;;;;;;;9.02;5.53;;;;;;;20.34;73.72;97178.44;4976674;28;20207;-72
2021/09/01 09:35:26;;;;;;;10.07;6.38;;;;;;;20.32;74.80;97180.50;4975831;28;20207;-70
2021/09/01 09:38:05;;;;;;;9.52;5.72;;;;;;;19.91;74.05;97181.97;4976735;28;20332;-71
2021/09/01 09:40:32;;;;;;;11.93;6.38;;;;;;;19.96;73.79;97180.28;4976834;28;21119;-72
2021/09/01 09:43:13;;;;;;;12.73;6.45;;;;;;;20.79;74.81;97175.50;4973974;28;20204;-72
2021/09/01 09:45:40;;;;;;;13.90;5.72;;;;;;;21.01;70.90;97172.19;4975483;28;20671;-72
2021/09/01 09:48:07;;;;;;;9.63;5.82;;;;;;;21.10;68.01;97176.25;4976955;28;20214;-71
2021/09/01 09:50:34;;;;;;;12.23;5.32;;;;;;;20.75;67.44;97186.84;4976602;28;20207;-72
2021/09/01 09:53:00;;;;;;;9.93;5.63;;;;;;;20.13;71.31;97175.25;4976598;28;20207;-72
2021/09/01 09:55:28;;;;;;;8.95;5.30;;;;;;;20.90;69.92;97180.97;4976064;28;20227;-72
2021/09/01 09:58:00;;;;;;;11.73;4.70;;;;;;;21.34;65.83;97180.78;4976354;28;20203;-72
2021/09/01 10:00:27;;;;;;;9.38;5.05;;;;;;;21.37;65.67;97172.28;4976672;28;20593;-72
2021/09/01 10:02:54;;;;;;;8.05;4.70;;;;;;;21.32;65.29;97165.94;4976926;28;20210;-72
2021/09/01 10:05:23;;;;;;;12.65;5.00;;;;;;;21.49;60.60;97165.16;4975599;28;20234;-71
2021/09/01 10:07:50;;;;;;;7.65;4.43;;;;;;;21.40;62.92;97169.19;4976380;28;20248;-72
2021/09/01 10:10:18;;;;;;;8.23;4.43;;;;;;;21.52;64.27;97160.22;4976274;28;20211;-71
2021/09/01 10:12:48;;;;;;;9.02;5.13;;;;;;;21.60;61.69;97156.41;4975944;28;20199;-72
2021/09/01 10:15:22;;;;;;;10.88;4.70;;;;;;;21.51;62.16;97158.56;4975707;28;20200;-72
2021/09/01 10:17:51;;;;;;;12.35;4.70;;;;;;;21.54;62.28;97162.69;4976441;28;20202;-72
2021/09/01 10:20:22;;;;;;;8.52;4.80;;;;;;;21.88;62.61;97159.38;4975508;28;20199;-73
2021/09/01 10:22:59;;;;;;;7.95;4.85;;;;;;;21.67;62.41;97160.66;4976291;28;20548;-74
2021/09/01 10:25:34;;;;;;;8.52;4.97;;;;;;;21.09;62.84;97160.38;4975351;28;20263;-72
2021/09/01 10:28:35;;;;;;;7.57;5.10;;;;;;;20.65;67.29;97165.88;4975881;28;20804;-72
2021/09/01 10:31:25;;;;;;;8.23;4.85;;;;;;;20.58;67.66;97167.78;4976050;28;20206;-72
2021/09/01 10:33:53;;;;;;;8.15;4.45;;;;;;;20.54;65.81;97165.75;4975765;28;20200;-73
2021/09/01 10:36:48;;;;;;;9.23;4.93;;;;;;;20.91;64.89;97169.22;4974151;28;20338;-71
2021/09/01 10:39:46;;;;;;;8.32;4.80;;;;;;;20.64;67.52;97168.78;4975738;28;20204;-72
2021/09/01 10:42:41;;;;;;;9.50;4.97;;;;;;;21.07;64.07;97170.53;4973777;28;20207;-72
2021/09/01 10:45:13;;;;;;;10.75;4.68;;;;;;;21.04;62.32;97163.75;4975803;28;20227;-73
2021/09/01 10:48:05;;;;;;;9.63;5.93;;;;;;;21.30;66.13;97168.06;4975721;28;20575;-72
2021/09/01 10:50:34;;;;;;;6.97;4.80;;;;;;;21.52;62.27;97168.28;4975423;28;20798;-72
2021/09/01 10:53:04;;;;;;;12.07;5.43;;;;;;;21.75;63.93;97160.34;4976185;28;20242;-71
2021/09/01 10:55:31;;;;;;;9.40;5.15;;;;;;;22.04;60.84;97161.47;4974456;28;20243;-71
2021/09/01 10:58:18;;;;;;;14.13;4.78;;;;;;;21.49;63.59;97162.50;4976080;28;20210;-72
2021/09/01 11:00:53;;;;;;;9.75;5.15;;;;;;;20.82;63.21;97172.38;4975270;28;20668;-72
2021/09/01 11:03:31;;;;;;;8.20;4.82;;;;;;;21.01;64.28;97172.19;4975772;28;20583;-71
2021/09/01 11:06:20;;;;;;;9.02;5.03;;;;;;;21.48;63.60;97161.66;4974980;28;20598;-73
2021/09/01 11:09:04;;;;;;;8.00;5.00;;;;;;;21.40;65.19;97160.28;4975348;28;20222;-72
2021/09/01 11:11:42;;;;;;;8.68;5.43;;;;;;;21.30;66.04;97160.00;4975440;28;20213;-73
2021/09/01 11:14:09;;;;;;;8.35;4.93;;;;;;;20.98;64.59;97156.56;4975982;28;20203;-72
2021/09/01 11:16:37;;;;;;;7.60;5.40;;;;;;;21.30;64.39;97154.66;4974302;28;20219;-71
2021/09/01 11:19:06;;;;;;;9.27;5.05;;;;;;;21.38;65.98;97147.13;4975348;28;20227;-72
2021/09/01 11:21:34;;;;;;;9.25;5.38;;;;;;;21.65;62.62;97149.34;4974941;28;20214;-71
2021/09/01 11:24:01;;;;;;;8.32;5.13;;;;;;;22.23;64.03;97153.16;4975556;28;20203;-72
2021/09/01 11:26:30;;;;;;;10.50;5.10;;;;;;;22.14;58.81;97160.69;4974327;28;20254;-72
2021/09/01 11:28:57;;;;;;;8.98;5.53;;;;;;;22.64;59.93;97151.34;4974347;28;20203;-71
2021/09/01 11:31:23;;;;;;;9.35;5.10;;;;;;;22.45;59.37;97155.13;4975071;28;20211;-71